createdAt,value
2023-05-12T00:00:21.398Z,60.47
2023-05-12T00:01:24.070Z,60.71
2023-05-12T00:02:26.368Z,60.81
2023-05-12T00:03:28.927Z,60.87
2023-05-12T00:04:31.316Z,61.09
2023-05-12T00:05:33.708Z,61.17
2023-05-12T00:06:36.005Z,61.12
2023-05-12T00:07:38.207Z,60.88
2023-05-12T00:08:40.765Z,60.58
2023-05-12T00:09:42.828Z,60.52
2023-05-12T00:10:45.125Z,60.85
2023-05-12T00:11:47.275Z,61.15
2023-05-12T00:12:49.388Z,61.05
2023-05-12T00:13:51.488Z,61.34
2023-05-12T00:14:53.899Z,61.33
2023-05-12T00:15:56.152Z,61.18
2023-05-12T00:16:58.320Z,61.47
2023-05-12T00:18:00.410Z,61.59
2023-05-12T00:19:03.049Z,61.37
2023-05-12T00:20:06.460Z,61.81
2023-05-12T00:21:08.713Z,62.04
2023-05-12T00:22:11.351Z,61.79
2023-05-12T00:23:13.729Z,62.06
2023-05-12T00:24:16.051Z,62.07
2023-05-12T00:25:18.637Z,61.84
2023-05-12T00:26:20.865Z,61.77
2023-05-12T00:27:23.338Z,61.71
2023-05-12T00:28:25.635Z,61.65
2023-05-12T00:29:27.914Z,61.72
2023-05-12T00:30:30.321Z,62.05
2023-05-12T00:31:32.683Z,62.28
2023-05-12T00:32:35.053Z,62.08
2023-05-12T00:33:37.356Z,61.93
2023-05-12T00:34:39.545Z,61.72
2023-05-12T00:35:41.696Z,61.72
2023-05-12T00:36:44.041Z,61.89
2023-05-12T00:37:46.216Z,62.41
2023-05-12T00:38:48.572Z,62.27
2023-05-12T00:39:50.843Z,62.04
2023-05-12T00:40:53.344Z,62.24
2023-05-12T00:41:57.574Z,62.26
2023-05-12T00:42:59.982Z,62.19
2023-05-12T00:44:02.245Z,62.66
2023-05-12T00:45:05.488Z,62.78
2023-05-12T00:46:08.621Z,62.67
2023-05-12T00:47:10.923Z,62.82
2023-05-12T00:48:13.482Z,62.76
2023-05-12T00:49:16.015Z,62.73
2023-05-12T00:50:18.897Z,62.48
2023-05-12T00:51:22.197Z,62.52
2023-05-12T00:52:24.922Z,62.68
2023-05-12T00:53:35.101Z,62.50
2023-05-12T00:54:34.436Z,62.71
2023-05-12T00:55:37.388Z,63.00
2023-05-12T00:56:40.307Z,63.45
2023-05-12T00:57:43.892Z,63.51
2023-05-12T00:58:47.408Z,63.67
2023-05-12T00:59:50.764Z,63.58
2023-05-12T01:00:53.258Z,63.79
2023-05-12T01:01:56.399Z,63.65
2023-05-12T01:02:59.086Z,63.93
2023-05-12T01:04:03.938Z,63.90
2023-05-12T01:05:07.490Z,63.78
2023-05-12T01:07:24.456Z,63.59
2023-05-12T01:08:27.790Z,64.01
2023-05-12T01:09:30.358Z,63.99
2023-05-12T01:10:33.671Z,64.00
2023-05-12T01:11:37.139Z,63.94
2023-05-12T01:12:40.387Z,63.94
2023-05-12T01:13:42.659Z,64.01
2023-05-12T01:14:44.817Z,64.02
2023-05-12T01:15:47.790Z,63.96
2023-05-12T01:16:57.517Z,63.79
2023-05-12T01:18:02.230Z,63.59
2023-05-12T01:19:06.400Z,63.85
2023-05-12T01:20:12.131Z,63.69
2023-05-12T01:21:16.152Z,63.68
2023-05-12T01:22:19.540Z,63.83
2023-05-12T01:23:25.517Z,63.96
2023-05-12T01:24:31.249Z,63.34
2023-05-12T01:25:34.619Z,63.02
2023-05-12T01:26:37.957Z,62.74
2023-05-12T01:27:42.530Z,62.84
2023-05-12T01:28:47.426Z,62.60
2023-05-12T01:29:52.207Z,62.66
2023-05-12T01:30:54.973Z,63.17
2023-05-12T01:31:58.387Z,63.64
2023-05-12T01:33:02.007Z,63.71
2023-05-12T01:34:04.846Z,63.72
2023-05-12T01:35:07.614Z,63.71
2023-05-12T01:36:11.630Z,63.58
2023-05-12T01:37:13.926Z,63.59
2023-05-12T01:38:16.683Z,63.48
2023-05-12T01:39:18.998Z,63.58
2023-05-12T01:40:23.479Z,63.33
2023-05-12T01:41:26.062Z,62.91
2023-05-12T01:42:28.357Z,63.19
2023-05-12T01:43:30.826Z,62.91
2023-05-12T01:44:33.257Z,62.75
2023-05-12T01:45:35.594Z,62.48
2023-05-12T01:46:38.044Z,62.48
2023-05-12T01:47:40.301Z,62.61
2023-05-12T01:48:44.586Z,62.23
2023-05-12T01:49:47.022Z,61.55
2023-05-12T01:50:51.299Z,61.55
2023-05-12T01:51:55.415Z,61.71
2023-05-12T01:52:59.456Z,62.13
2023-05-12T01:54:02.611Z,62.09
2023-05-12T01:55:07.074Z,61.85
2023-05-12T01:56:11.624Z,62.04
2023-05-12T01:57:14.200Z,62.52
2023-05-12T01:58:16.262Z,62.59
2023-05-12T01:59:18.639Z,62.45
2023-05-12T02:00:21.327Z,62.31
2023-05-12T02:01:24.597Z,62.02
2023-05-12T02:02:26.977Z,61.89
2023-05-12T02:03:29.254Z,62.03
2023-05-12T02:04:32.454Z,62.52
2023-05-12T02:05:35.009Z,62.92
2023-05-12T02:06:37.947Z,62.78
2023-05-12T02:07:40.130Z,62.75
2023-05-12T02:08:43.567Z,62.95
2023-05-12T02:09:46.418Z,62.87
2023-05-12T02:10:49.172Z,63.17
2023-05-12T02:11:51.458Z,63.06
2023-05-12T02:12:53.680Z,63.07
2023-05-12T02:13:55.924Z,62.93
2023-05-12T02:14:58.923Z,62.84
2023-05-12T02:16:01.734Z,63.27
2023-05-12T02:17:04.333Z,63.34
2023-05-12T02:18:06.872Z,63.61
2023-05-12T02:19:09.148Z,63.58
2023-05-12T02:20:12.507Z,63.26
2023-05-12T02:21:14.862Z,63.34
2023-05-12T02:22:17.003Z,63.32
2023-05-12T02:23:19.363Z,63.20
2023-05-12T02:24:21.777Z,63.26
2023-05-12T02:25:24.408Z,63.25
2023-05-12T02:26:27.195Z,63.19
2023-05-12T02:27:29.746Z,63.12
2023-05-12T02:28:32.095Z,62.71
2023-05-12T02:29:34.954Z,63.40
2023-05-12T02:30:37.719Z,63.67
2023-05-12T02:31:40.960Z,63.68
2023-05-12T02:32:52.311Z,63.41
2023-05-12T02:33:54.649Z,63.35
2023-05-12T02:34:57.515Z,63.27
2023-05-12T02:36:00.137Z,63.22
2023-05-12T02:37:02.484Z,63.74
2023-05-12T02:38:04.827Z,64.01
2023-05-12T02:39:07.282Z,63.53
2023-05-12T02:40:10.965Z,63.48
2023-05-12T02:41:14.886Z,63.30
2023-05-12T02:42:17.864Z,63.30
2023-05-12T02:43:20.441Z,63.16
2023-05-12T02:44:22.632Z,63.38
2023-05-12T02:45:25.186Z,63.27
2023-05-12T02:46:27.955Z,63.37
2023-05-12T02:47:30.903Z,63.57
2023-05-12T02:48:33.243Z,63.65
2023-05-12T02:49:35.522Z,63.63
2023-05-12T02:50:38.237Z,63.96
2023-05-12T02:51:40.433Z,63.92
2023-05-12T02:52:42.837Z,63.61
2023-05-12T02:53:45.442Z,63.56
2023-05-12T02:54:47.634Z,63.90
2023-05-12T02:55:49.766Z,64.08
2023-05-12T02:56:52.125Z,64.65
2023-05-12T02:57:54.416Z,64.84
2023-05-12T02:58:56.736Z,64.70
2023-05-12T03:00:00.021Z,64.48
2023-05-12T03:01:10.009Z,64.42
2023-05-12T03:02:06.614Z,64.38
2023-05-12T03:03:09.123Z,64.41
2023-05-12T03:04:11.428Z,64.36
2023-05-12T03:05:13.684Z,64.42
2023-05-12T03:06:16.395Z,64.51
2023-05-12T03:07:18.759Z,64.52
2023-05-12T03:08:22.468Z,64.36
2023-05-12T03:09:24.833Z,64.53
2023-05-12T03:10:27.250Z,64.47
2023-05-12T03:11:29.439Z,64.32
2023-05-12T03:12:31.830Z,64.45
2023-05-12T03:13:34.514Z,64.50
2023-05-12T03:14:37.419Z,64.49
2023-05-12T03:15:39.572Z,64.32
2023-05-12T03:16:42.173Z,64.50
2023-05-12T03:17:45.547Z,64.45
2023-05-12T03:18:48.400Z,64.57
2023-05-12T03:19:50.538Z,64.55
2023-05-12T03:20:52.912Z,64.66
2023-05-12T03:21:57.031Z,64.71
2023-05-12T03:23:00.616Z,64.52
2023-05-12T03:24:03.771Z,64.60
2023-05-12T03:25:08.836Z,64.70
2023-05-12T03:26:13.455Z,64.86
2023-05-12T03:27:15.642Z,64.71
2023-05-12T03:28:17.897Z,64.57
2023-05-12T03:29:20.806Z,64.39
2023-05-12T03:30:23.155Z,64.42
2023-05-12T03:31:25.380Z,64.48
2023-05-12T03:32:27.831Z,64.39
2023-05-12T03:33:29.910Z,64.27
2023-05-12T03:34:32.151Z,64.36
2023-05-12T03:35:34.695Z,64.21
2023-05-12T03:36:38.597Z,64.12
2023-05-12T03:37:40.925Z,63.75
2023-05-12T03:38:43.396Z,63.78
2023-05-12T03:39:47.576Z,63.95
2023-05-12T03:40:49.830Z,64.17
2023-05-12T03:41:52.126Z,64.17
2023-05-12T03:42:54.215Z,63.51
2023-05-12T03:43:56.497Z,63.21
2023-05-12T03:44:58.807Z,63.25
2023-05-12T03:46:01.222Z,63.39
2023-05-12T03:47:03.776Z,63.51
2023-05-12T03:48:06.092Z,63.95
2023-05-12T03:49:08.904Z,64.80
2023-05-12T03:50:13.200Z,64.68
2023-05-12T03:51:15.585Z,65.22
2023-05-12T03:52:17.864Z,65.42
2023-05-12T03:53:20.365Z,65.29
2023-05-12T03:54:22.655Z,65.75
2023-05-12T03:55:24.739Z,66.12
2023-05-12T03:56:27.154Z,65.99
2023-05-12T03:57:29.470Z,66.18
2023-05-12T03:58:31.737Z,66.26
2023-05-12T03:59:34.495Z,66.29
2023-05-12T04:00:38.825Z,66.07
2023-05-12T04:01:42.361Z,66.47
2023-05-12T04:02:44.565Z,66.54
2023-05-12T04:03:48.984Z,66.70
2023-05-12T04:04:51.447Z,66.78
2023-05-12T04:07:10.188Z,66.50
2023-05-12T04:08:12.493Z,66.64
2023-05-12T04:09:14.656Z,65.97
2023-05-12T04:10:17.181Z,65.97
2023-05-12T04:11:19.599Z,65.80
2023-05-12T04:12:23.008Z,65.64
2023-05-12T04:13:26.699Z,65.73
2023-05-12T04:14:41.622Z,65.63
2023-05-12T04:15:35.371Z,65.35
2023-05-12T04:16:38.604Z,65.60
2023-05-12T04:17:41.013Z,65.29
2023-05-12T04:18:43.401Z,65.33
2023-05-12T04:19:45.723Z,64.79
2023-05-12T04:20:49.361Z,64.66
2023-05-12T04:21:51.573Z,64.68
2023-05-12T04:22:53.809Z,64.59
2023-05-12T04:23:56.063Z,64.23
2023-05-12T04:25:00.144Z,63.69
2023-05-12T04:26:05.627Z,63.75
2023-05-12T04:27:08.555Z,63.22
2023-05-12T04:28:12.298Z,63.29
2023-05-12T04:29:15.277Z,63.10
2023-05-12T04:30:18.148Z,62.67
2023-05-12T04:31:20.857Z,62.79
2023-05-12T04:32:23.146Z,62.59
2023-05-12T04:33:26.178Z,62.18
2023-05-12T04:34:29.409Z,61.98
2023-05-12T04:35:32.060Z,61.96
2023-05-12T04:36:34.906Z,61.59
2023-05-12T04:37:36.941Z,61.78
2023-05-12T04:38:39.640Z,60.92
2023-05-12T04:39:41.834Z,60.79
2023-05-12T04:40:44.194Z,60.80
2023-05-12T04:41:46.948Z,60.73
2023-05-12T04:42:50.075Z,60.68
2023-05-12T04:44:57.355Z,60.28
2023-05-12T04:46:00.427Z,60.33
2023-05-12T04:47:03.323Z,60.14
2023-05-12T04:48:06.212Z,60.42
2023-05-12T04:49:08.601Z,60.10
2023-05-12T04:50:12.714Z,59.26
2023-05-12T04:51:15.430Z,59.38
2023-05-12T04:52:17.602Z,59.11
2023-05-12T04:53:19.873Z,58.92
2023-05-12T04:54:22.244Z,58.89
2023-05-12T04:55:24.950Z,59.09
2023-05-12T04:56:27.276Z,59.09
2023-05-12T04:57:29.970Z,58.83
2023-05-12T04:58:33.938Z,58.51
2023-05-12T04:59:36.339Z,58.42
2023-05-12T05:00:39.033Z,58.54
2023-05-12T05:01:41.972Z,58.59
2023-05-12T05:02:44.253Z,58.90
2023-05-12T05:03:46.846Z,58.86
2023-05-12T05:04:49.280Z,58.73
2023-05-12T05:05:51.559Z,58.38
2023-05-12T05:06:53.928Z,58.48
2023-05-12T05:07:56.232Z,58.64
2023-05-12T05:08:59.389Z,58.45
2023-05-12T05:10:01.930Z,58.39
2023-05-12T05:11:05.357Z,58.29
2023-05-12T05:12:08.113Z,57.94
2023-05-12T05:13:11.178Z,57.78
2023-05-12T05:14:13.360Z,57.79
2023-05-12T05:15:15.764Z,57.50
2023-05-12T05:16:19.026Z,57.55
2023-05-12T05:17:22.318Z,57.36
2023-05-12T05:18:24.769Z,57.14
2023-05-12T05:19:45.896Z,57.31
2023-05-12T05:20:33.543Z,56.55
2023-05-12T05:21:35.780Z,56.55
2023-05-12T05:22:38.088Z,56.36
2023-05-12T05:23:41.888Z,56.27
2023-05-12T05:24:44.638Z,56.56
2023-05-12T05:25:46.691Z,57.05
2023-05-12T05:26:48.867Z,56.83
2023-05-12T05:27:51.616Z,57.04
2023-05-12T05:28:54.506Z,57.00
2023-05-12T05:29:57.862Z,57.04
2023-05-12T05:31:00.601Z,57.14
2023-05-12T05:32:03.229Z,56.18
2023-05-12T05:33:05.565Z,56.30
2023-05-12T05:34:07.909Z,56.21
2023-05-12T05:35:10.185Z,56.12
2023-05-12T05:36:15.322Z,55.72
2023-05-12T05:37:17.705Z,56.13
2023-05-12T05:38:19.874Z,56.12
2023-05-12T05:39:23.760Z,56.04
2023-05-12T05:40:26.602Z,56.11
2023-05-12T05:41:28.835Z,55.94
2023-05-12T05:42:31.156Z,55.95
2023-05-12T05:43:34.767Z,55.22
2023-05-12T05:44:38.277Z,55.17
2023-05-12T05:45:40.737Z,54.19
2023-05-12T05:46:43.690Z,54.46
2023-05-12T05:47:46.134Z,54.92
2023-05-12T05:48:48.343Z,55.14
2023-05-12T05:49:51.066Z,55.10
2023-05-12T05:50:53.805Z,55.06
2023-05-12T05:51:57.667Z,54.05
2023-05-12T05:53:00.116Z,54.17
2023-05-12T05:54:02.365Z,54.82
2023-05-12T05:55:05.597Z,54.65
2023-05-12T05:56:08.602Z,54.44
2023-05-12T05:57:10.940Z,54.46
2023-05-12T05:58:13.459Z,54.61
2023-05-12T05:59:15.873Z,55.02
2023-05-12T06:00:18.876Z,54.66
2023-05-12T06:01:22.497Z,53.88
2023-05-12T06:02:25.047Z,53.58
2023-05-12T06:03:27.379Z,53.84
2023-05-12T06:04:29.820Z,54.38
2023-05-12T06:05:33.719Z,53.49
2023-05-12T06:06:36.617Z,52.97
2023-05-12T06:07:39.020Z,51.99
2023-05-12T06:08:41.147Z,53.01
2023-05-12T06:09:43.745Z,53.77
2023-05-12T06:10:46.248Z,53.16
2023-05-12T06:11:48.554Z,53.15
2023-05-12T06:12:51.180Z,53.07
2023-05-12T06:13:53.361Z,52.71
2023-05-12T06:14:56.126Z,53.21
2023-05-12T06:15:58.410Z,51.88
2023-05-12T06:17:01.861Z,52.50
2023-05-12T06:18:04.337Z,52.57
2023-05-12T06:19:06.547Z,51.96
2023-05-12T06:20:10.337Z,53.56
2023-05-12T06:21:12.925Z,53.27
2023-05-12T06:22:15.541Z,52.17
2023-05-12T06:23:18.221Z,51.08
2023-05-12T06:24:21.250Z,50.99
2023-05-12T06:25:23.902Z,51.15
2023-05-12T06:26:26.206Z,51.68
2023-05-12T06:27:28.322Z,51.88
2023-05-12T06:28:30.681Z,50.84
2023-05-12T06:29:33.399Z,51.29
2023-05-12T06:30:35.928Z,50.80
2023-05-12T06:31:38.223Z,51.60
2023-05-12T06:32:40.363Z,51.54
2023-05-12T06:33:43.129Z,50.78
2023-05-12T06:34:45.290Z,50.00
2023-05-12T06:35:47.447Z,50.41
2023-05-12T06:36:50.129Z,48.88
2023-05-12T06:37:52.412Z,49.55
2023-05-12T06:38:54.630Z,49.37
2023-05-12T06:39:57.318Z,49.60
2023-05-12T06:40:59.842Z,48.82
2023-05-12T06:42:02.744Z,48.83
2023-05-12T06:43:07.453Z,48.84
2023-05-12T06:44:10.862Z,50.40
2023-05-12T06:45:13.180Z,49.98
2023-05-12T06:46:16.174Z,49.01
2023-05-12T06:47:18.410Z,48.76
2023-05-12T06:48:23.003Z,48.01
2023-05-12T06:49:25.290Z,47.69
2023-05-12T06:50:27.461Z,48.72
2023-05-12T06:51:29.642Z,48.30
2023-05-12T06:52:31.928Z,49.52
2023-05-12T06:53:34.121Z,48.48
2023-05-12T06:54:36.345Z,49.08
2023-05-12T06:55:38.306Z,49.63
2023-05-12T06:56:40.489Z,48.17
2023-05-12T06:57:42.734Z,48.41
2023-05-12T06:58:45.147Z,48.57
2023-05-12T06:59:47.461Z,48.41
2023-05-12T07:00:49.858Z,46.94
2023-05-12T07:01:52.014Z,45.65
2023-05-12T07:02:54.354Z,47.27
2023-05-12T07:03:58.030Z,46.81
2023-05-12T07:05:00.989Z,48.05
2023-05-12T07:06:03.483Z,46.91
2023-05-12T07:07:05.994Z,48.35
2023-05-12T07:08:08.537Z,46.97
2023-05-12T07:09:10.831Z,45.52
2023-05-12T07:10:14.387Z,45.06
2023-05-12T07:11:16.666Z,45.45
2023-05-12T07:12:18.833Z,47.36
2023-05-12T07:13:21.861Z,48.34
2023-05-12T07:14:24.311Z,46.24
2023-05-12T07:15:26.691Z,45.53
2023-05-12T07:16:29.041Z,47.21
2023-05-12T07:17:31.850Z,46.49
2023-05-12T07:18:34.433Z,46.60
2023-05-12T07:19:36.653Z,45.53
2023-05-12T07:20:38.940Z,45.59
2023-05-12T07:21:41.128Z,44.81
2023-05-12T07:22:43.296Z,45.31
2023-05-12T07:23:45.595Z,44.50
2023-05-12T07:24:47.761Z,44.02
2023-05-12T07:25:56.479Z,43.96
2023-05-12T07:26:58.802Z,43.92
2023-05-12T07:28:01.598Z,43.96
2023-05-12T07:29:03.569Z,44.07
2023-05-12T07:30:07.288Z,44.42
2023-05-12T07:31:09.570Z,43.81
2023-05-12T07:32:12.901Z,43.92
2023-05-12T07:33:15.238Z,44.92
2023-05-12T07:34:17.404Z,44.54
2023-05-12T07:35:19.790Z,44.08
2023-05-12T07:36:22.288Z,44.67
2023-05-12T07:37:25.028Z,44.49
2023-05-12T07:38:27.175Z,44.47
2023-05-12T07:39:29.342Z,43.73
2023-05-12T07:40:31.603Z,42.04
2023-05-12T07:41:34.518Z,42.55
2023-05-12T07:42:36.900Z,42.07
2023-05-12T07:43:39.552Z,41.60
2023-05-12T07:44:42.489Z,41.15
2023-05-12T07:45:45.402Z,40.68
2023-05-12T07:46:48.274Z,39.08
2023-05-12T07:47:51.287Z,38.62
2023-05-12T07:48:54.155Z,39.44
2023-05-12T07:49:56.297Z,41.07
2023-05-12T07:50:59.008Z,41.20
2023-05-12T07:52:01.303Z,40.95
2023-05-12T07:53:04.127Z,42.26
2023-05-12T07:54:06.797Z,42.52
2023-05-12T07:55:09.396Z,43.00
2023-05-12T07:56:12.515Z,40.24
2023-05-12T07:57:15.222Z,40.50
2023-05-12T07:58:17.639Z,41.08
2023-05-12T07:59:19.813Z,39.74
2023-05-12T08:00:22.785Z,39.76
2023-05-12T08:01:25.696Z,39.95
2023-05-12T08:02:28.696Z,39.32
2023-05-12T08:03:32.512Z,38.77
2023-05-12T08:04:35.172Z,39.89
2023-05-12T08:05:37.448Z,40.16
2023-05-12T08:06:39.807Z,40.03
2023-05-12T08:07:43.246Z,39.25
2023-05-12T08:08:45.989Z,39.96
2023-05-12T08:09:48.193Z,41.13
2023-05-12T08:10:50.623Z,38.15
2023-05-12T08:11:52.716Z,39.46
2023-05-12T08:12:55.324Z,38.93
2023-05-12T08:13:57.580Z,39.14
2023-05-12T08:14:59.775Z,37.95
2023-05-12T08:16:02.001Z,37.75
2023-05-12T08:17:04.448Z,37.47
2023-05-12T08:18:06.849Z,36.69
2023-05-12T08:19:09.480Z,36.70
2023-05-12T08:20:12.414Z,38.62
2023-05-12T08:21:14.619Z,38.51
2023-05-12T08:22:16.808Z,38.51
2023-05-12T08:23:19.053Z,39.32
2023-05-12T08:24:21.752Z,39.19
2023-05-12T08:25:23.798Z,39.42
2023-05-12T08:26:26.644Z,38.25
2023-05-12T08:27:28.814Z,38.68
2023-05-12T08:28:31.281Z,38.77
2023-05-12T08:29:33.731Z,39.70
2023-05-12T08:30:36.549Z,37.79
2023-05-12T08:31:38.802Z,37.33
2023-05-12T08:32:41.654Z,34.15
2023-05-12T08:33:44.384Z,34.30
2023-05-12T08:34:46.690Z,33.17
2023-05-12T08:35:48.971Z,35.02
2023-05-12T08:36:55.605Z,37.66
2023-05-12T08:37:58.131Z,37.74
2023-05-12T08:39:01.036Z,37.12
2023-05-12T08:40:08.016Z,36.91
2023-05-12T08:41:19.704Z,37.20
2023-05-12T08:45:02.627Z,36.59
2023-05-12T08:46:06.076Z,38.15
2023-05-12T08:47:08.754Z,38.84
2023-05-12T08:48:12.588Z,39.74
2023-05-12T08:49:17.364Z,38.29
2023-05-12T08:50:23.253Z,38.26
2023-05-12T08:51:29.080Z,36.55
2023-05-12T08:52:35.278Z,36.13
2023-05-12T08:53:38.642Z,36.47
2023-05-12T08:54:52.253Z,34.14
2023-05-12T08:55:58.699Z,33.26
2023-05-12T08:57:59.373Z,34.57
2023-05-12T08:59:04.466Z,35.73
2023-05-12T09:00:08.599Z,36.33
2023-05-12T09:01:11.666Z,34.77
2023-05-12T09:02:16.737Z,35.17
2023-05-12T09:03:20.975Z,36.68
2023-05-12T09:04:23.265Z,36.56
2023-05-12T09:05:28.205Z,36.39
2023-05-12T09:06:32.130Z,35.26
2023-05-12T09:07:37.511Z,36.52
2023-05-12T09:08:40.227Z,36.10
2023-05-12T09:09:45.076Z,37.26
2023-05-12T09:10:48.767Z,35.80
2023-05-12T09:11:54.084Z,36.32
2023-05-12T09:12:59.736Z,34.74
2023-05-12T09:14:11.474Z,36.20
2023-05-12T09:15:17.214Z,35.85
2023-05-12T09:16:25.624Z,35.11
2023-05-12T09:17:28.213Z,34.18
2023-05-12T09:20:02.897Z,33.60
2023-05-12T09:21:05.109Z,35.76
2023-05-12T09:22:07.798Z,35.97
2023-05-12T09:24:37.270Z,35.96
2023-05-12T09:25:39.643Z,34.64
2023-05-12T09:26:50.762Z,34.18
2023-05-12T09:27:55.624Z,34.91
2023-05-12T09:29:06.772Z,35.18
2023-05-12T09:30:09.632Z,35.05
2023-05-12T09:31:20.516Z,35.14
2023-05-12T09:32:33.009Z,35.21
2023-05-12T09:33:35.768Z,34.87
2023-05-12T09:34:37.955Z,35.00
2023-05-12T09:35:41.947Z,34.84
2023-05-12T09:36:47.113Z,35.13
2023-05-12T09:37:49.710Z,35.43
2023-05-12T09:38:59.505Z,34.31
2023-05-12T09:40:07.739Z,34.03
2023-05-12T09:41:10.584Z,35.49
2023-05-12T09:42:14.319Z,35.59
2023-05-12T09:43:17.241Z,35.24
2023-05-12T09:44:19.969Z,33.75
2023-05-12T09:45:23.672Z,34.10
2023-05-12T09:46:26.731Z,33.95
2023-05-12T09:47:34.451Z,34.65
2023-05-12T09:48:37.847Z,34.72
2023-05-12T09:49:43.548Z,34.00
2023-05-12T09:50:50.825Z,35.46
2023-05-12T09:51:57.892Z,34.48
2023-05-12T09:53:00.002Z,33.41
2023-05-12T09:54:02.167Z,33.95
2023-05-12T09:55:08.972Z,35.73
2023-05-12T09:57:25.915Z,34.82
2023-05-12T09:58:28.676Z,33.97
2023-05-12T09:59:33.400Z,32.72
2023-05-12T10:00:52.396Z,32.07
2023-05-12T10:01:43.426Z,32.20
2023-05-12T10:02:51.325Z,32.38
2023-05-12T10:03:55.796Z,33.46
2023-05-12T10:05:01.539Z,33.26
2023-05-12T10:06:07.985Z,34.41
2023-05-12T10:07:12.793Z,32.85
2023-05-12T10:09:38.195Z,33.09
2023-05-12T10:10:41.092Z,31.51
2023-05-12T10:11:44.590Z,31.14
2023-05-12T10:12:48.058Z,31.85
2023-05-12T10:13:51.498Z,30.61
2023-05-12T10:14:55.956Z,32.55
2023-05-12T10:15:59.430Z,35.07
2023-05-12T10:17:02.107Z,33.74
2023-05-12T10:18:04.766Z,32.62
2023-05-12T10:19:09.706Z,33.82
2023-05-12T10:20:13.001Z,32.71
2023-05-12T10:21:18.461Z,33.54
2023-05-12T10:22:21.762Z,31.19
2023-05-12T10:23:26.200Z,32.05
2023-05-12T10:24:28.422Z,31.62
2023-05-12T10:25:32.040Z,33.43
2023-05-12T10:26:36.363Z,32.96
2023-05-12T10:27:39.828Z,32.75
2023-05-12T10:28:42.730Z,33.61
2023-05-12T10:29:46.091Z,34.55
2023-05-12T10:30:49.871Z,31.95
2023-05-12T10:31:52.209Z,31.06
2023-05-12T10:32:54.625Z,31.92
2023-05-12T10:34:01.921Z,30.85
2023-05-12T10:35:11.461Z,30.58
2023-05-12T10:36:18.386Z,32.89
2023-05-12T10:37:23.428Z,33.33
2023-05-12T10:38:25.767Z,30.55
2023-05-12T10:39:31.302Z,32.65
2023-05-12T10:40:34.373Z,31.23
2023-05-12T10:41:36.548Z,31.07
2023-05-12T10:42:43.436Z,31.34
2023-05-12T10:43:48.738Z,31.94
2023-05-12T10:44:52.642Z,31.19
2023-05-12T10:46:18.569Z,30.42
2023-05-12T10:47:37.794Z,30.18
2023-05-12T10:49:00.941Z,30.22
2023-05-12T10:50:03.506Z,30.12
2023-05-12T10:51:11.713Z,30.16
2023-05-12T10:52:17.955Z,30.60
2023-05-12T10:53:38.055Z,31.47
2023-05-12T10:56:06.992Z,30.29
2023-05-12T10:57:19.250Z,29.43
2023-05-12T10:58:22.068Z,30.97
2023-05-12T10:59:26.295Z,31.82
2023-05-12T11:00:30.141Z,33.53
2023-05-12T11:01:33.553Z,32.21
2023-05-12T11:02:37.413Z,31.85
2023-05-12T11:03:41.207Z,31.31
2023-05-12T11:04:52.847Z,31.12
2023-05-12T11:07:06.205Z,30.81
2023-05-12T11:08:09.666Z,30.78
2023-05-12T11:09:13.371Z,31.60
2023-05-12T11:10:17.564Z,31.19
2023-05-12T11:11:20.457Z,31.16
2023-05-12T11:12:23.435Z,31.34
2023-05-12T11:13:26.525Z,33.31
2023-05-12T11:14:29.173Z,34.16
2023-05-12T11:15:31.368Z,32.19
2023-05-12T11:16:33.978Z,31.97
2023-05-12T11:17:40.454Z,33.46
2023-05-12T11:18:43.482Z,33.03
2023-05-12T11:19:48.026Z,31.48
2023-05-12T11:20:51.024Z,32.28
2023-05-12T11:21:55.052Z,31.66
2023-05-12T11:22:57.323Z,30.16
2023-05-12T11:24:01.234Z,33.42
2023-05-12T11:25:11.085Z,31.73
2023-05-12T11:26:17.939Z,31.77
2023-05-12T11:27:21.490Z,32.93
2023-05-12T11:28:23.938Z,31.30
2023-05-12T11:29:26.585Z,31.37
2023-05-12T11:30:28.873Z,30.84
2023-05-12T11:31:31.535Z,31.40
2023-05-12T11:32:34.322Z,31.86
2023-05-12T11:33:37.516Z,30.63
2023-05-12T11:34:39.676Z,30.28
2023-05-12T11:35:42.418Z,30.42
2023-05-12T11:36:44.868Z,29.60
2023-05-12T11:37:47.040Z,29.66
2023-05-12T11:39:59.940Z,30.12
2023-05-12T11:41:02.595Z,29.93
2023-05-12T11:42:13.087Z,30.11
2023-05-12T11:43:12.745Z,30.56
2023-05-12T11:44:20.778Z,30.25
2023-05-12T11:46:34.636Z,31.13
2023-05-12T11:47:37.098Z,30.75
2023-05-12T11:48:39.395Z,30.05
2023-05-12T11:50:59.485Z,31.49
2023-05-12T11:52:02.128Z,31.80
2023-05-12T11:53:04.375Z,31.43
2023-05-12T11:54:06.966Z,30.51
2023-05-12T11:55:10.730Z,30.17
2023-05-12T11:56:21.905Z,30.33
2023-05-12T11:58:39.213Z,30.07
2023-05-12T11:59:41.471Z,30.72
2023-05-12T12:00:44.286Z,30.80
2023-05-12T12:01:46.522Z,31.31
2023-05-12T12:02:48.772Z,31.62
2023-05-12T12:03:57.105Z,31.74
2023-05-12T12:05:00.072Z,31.80
2023-05-12T12:06:04.249Z,31.02
2023-05-12T12:07:07.762Z,31.11
2023-05-12T12:08:15.211Z,31.39
2023-05-12T12:09:17.933Z,32.07
2023-05-12T12:10:20.389Z,31.39
2023-05-12T12:11:25.001Z,31.07
2023-05-12T12:12:27.298Z,31.15
2023-05-12T12:13:29.558Z,31.36
2023-05-12T12:14:32.771Z,31.90
2023-05-12T12:15:35.110Z,31.23
2023-05-12T12:16:37.921Z,32.05
2023-05-12T12:17:40.717Z,33.31
2023-05-12T12:18:43.865Z,33.88
2023-05-12T12:19:46.242Z,33.43
2023-05-12T12:20:48.660Z,32.70
2023-05-12T12:21:51.319Z,32.70
2023-05-12T12:22:54.173Z,32.21
2023-05-12T12:23:56.932Z,32.19
2023-05-12T12:24:59.748Z,32.86
2023-05-12T12:26:02.419Z,33.17
2023-05-12T12:27:05.180Z,31.92
2023-05-12T12:28:07.399Z,33.04
2023-05-12T12:29:09.695Z,32.67
2023-05-12T12:30:14.757Z,31.97
2023-05-12T12:31:17.078Z,33.50
2023-05-12T12:32:20.371Z,33.20
2023-05-12T12:33:25.781Z,30.77
2023-05-12T12:34:28.061Z,31.08
2023-05-12T12:35:30.876Z,30.26
2023-05-12T12:36:33.876Z,30.38
2023-05-12T12:37:36.176Z,29.23
2023-05-12T12:38:38.368Z,30.19
2023-05-12T12:39:40.650Z,30.98
2023-05-12T12:40:43.221Z,32.34
2023-05-12T12:41:46.148Z,31.12
2023-05-12T12:42:48.347Z,30.33
2023-05-12T12:43:50.932Z,29.22
2023-05-12T12:44:53.319Z,29.49
2023-05-12T12:45:55.726Z,30.01
2023-05-12T12:46:57.939Z,29.46
2023-05-12T12:48:02.504Z,30.08
2023-05-12T12:49:04.820Z,30.79
2023-05-12T12:50:08.431Z,29.46
2023-05-12T12:51:10.897Z,30.58
2023-05-12T12:52:13.699Z,31.32
2023-05-12T12:53:16.579Z,30.86
2023-05-12T12:54:18.872Z,31.46
2023-05-12T12:55:21.548Z,31.79
2023-05-12T12:56:25.543Z,32.06
2023-05-12T12:57:28.244Z,31.88
2023-05-12T12:58:30.604Z,31.68
2023-05-12T12:59:32.812Z,31.54
2023-05-12T13:00:35.768Z,31.49
2023-05-12T13:01:39.093Z,31.46
2023-05-12T13:02:41.379Z,31.77
2023-05-12T13:03:43.816Z,31.69
2023-05-12T13:04:45.986Z,32.18
2023-05-12T13:05:48.851Z,32.33
2023-05-12T13:06:51.207Z,32.36
2023-05-12T13:07:53.865Z,32.72
2023-05-12T13:08:56.632Z,32.55
2023-05-12T13:09:58.918Z,32.12
2023-05-12T13:11:01.304Z,32.29
2023-05-12T13:12:04.301Z,32.71
2023-05-12T13:13:06.539Z,33.21
2023-05-12T13:14:08.866Z,34.37
2023-05-12T13:15:12.460Z,33.93
2023-05-12T13:16:16.178Z,32.96
2023-05-12T13:17:18.284Z,32.58
2023-05-12T13:18:20.700Z,33.42
2023-05-12T13:19:23.119Z,33.80
2023-05-12T13:20:25.303Z,33.02
2023-05-12T13:21:28.630Z,33.02
2023-05-12T13:22:31.965Z,30.74
2023-05-12T13:23:34.535Z,30.43
2023-05-12T13:24:37.315Z,31.30
2023-05-12T13:25:39.464Z,31.34
2023-05-12T13:26:41.738Z,32.21
2023-05-12T13:27:43.944Z,33.00
2023-05-12T13:28:46.040Z,32.70
2023-05-12T13:29:48.698Z,32.19
2023-05-12T13:30:54.112Z,32.91
2023-05-12T13:31:56.412Z,31.29
2023-05-12T13:32:59.193Z,30.16
2023-05-12T13:34:01.517Z,29.80
2023-05-12T13:35:04.233Z,29.94
2023-05-12T13:36:07.553Z,31.15
2023-05-12T13:37:09.837Z,31.12
2023-05-12T13:38:13.106Z,30.78
2023-05-12T13:39:16.061Z,30.45
2023-05-12T13:40:19.667Z,31.04
2023-05-12T13:41:21.839Z,29.85
2023-05-12T13:42:24.019Z,31.02
2023-05-12T13:43:26.197Z,30.04
2023-05-12T13:44:28.818Z,30.14
2023-05-12T13:45:31.137Z,31.28
2023-05-12T13:46:33.364Z,30.87
2023-05-12T13:47:35.712Z,30.50
2023-05-12T13:48:38.077Z,30.92
2023-05-12T13:49:40.952Z,30.71
2023-05-12T13:50:43.685Z,31.10
2023-05-12T13:51:45.832Z,30.10
2023-05-12T13:52:48.061Z,29.51
2023-05-12T13:53:50.189Z,30.07
2023-05-12T13:54:52.854Z,29.83